sensor_id;sensor_type;location;lat;lon;timestamp;P1;durP1;ratioP1;P2;durP2;ratioP2
19161;SDS011;9713;48.140;11.530;2023-02-01T00:02:18;5.40;;;3.03;;
19161;SDS011;9713;48.140;11.530;2023-02-01T00:06:01;7.53;;;3.53;;
19161;SDS011;9713;48.140;11.530;2023-02-01T00:09:45;6.60;;;4.10;;
19161;SDS011;9713;48.140;11.530;2023-02-01T00:13:28;8.10;;;3.23;;
19161;SDS011;9713;48.140;11.530;2023-02-01T00:17:12;4.13;;;2.63;;
19161;SDS011;9713;48.140;11.530;2023-02-01T00:20:54;5.10;;;2.97;;
19161;SDS011;9713;48.140;11.530;2023-02-01T00:24:37;7.63;;;3.00;;
19161;SDS011;9713;48.140;11.530;2023-02-01T00:28:21;6.97;;;3.20;;
19161;SDS011;9713;48.140;11.530;2023-02-01T00:32:04;4.67;;;2.67;;
19161;SDS011;9713;48.140;11.530;2023-02-01T00:35:47;5.20;;;2.60;;
19161;SDS011;9713;48.140;11.530;2023-02-01T00:39:30;4.53;;;2.70;;
19161;SDS011;9713;48.140;11.530;2023-02-01T00:43:12;7.30;;;3.43;;
19161;SDS011;9713;48.140;11.530;2023-02-01T00:46:56;6.27;;;3.10;;
19161;SDS011;9713;48.140;11.530;2023-02-01T00:50:40;6.27;;;3.27;;
19161;SDS011;9713;48.140;11.530;2023-02-01T00:54:24;5.70;;;3.40;;
19161;SDS011;9713;48.140;11.530;2023-02-01T00:58:06;4.80;;;3.20;;
19161;SDS011;9713;48.140;11.530;2023-02-01T01:01:50;6.23;;;3.57;;
19161;SDS011;9713;48.140;11.530;2023-02-01T01:05:34;7.23;;;3.93;;
19161;SDS011;9713;48.140;11.530;2023-02-01T01:09:17;7.63;;;3.70;;
19161;SDS011;9713;48.140;11.530;2023-02-01T01:13:00;6.97;;;3.90;;
19161;SDS011;9713;48.140;11.530;2023-02-01T01:16:42;9.93;;;4.23;;
19161;SDS011;9713;48.140;11.530;2023-02-01T01:20:25;7.30;;;4.00;;
19161;SDS011;9713;48.140;11.530;2023-02-01T01:24:09;7.83;;;4.00;;
19161;SDS011;9713;48.140;11.530;2023-02-01T01:27:52;7.13;;;4.03;;
19161;SDS011;9713;48.140;11.530;2023-02-01T01:31:35;6.37;;;3.83;;
19161;SDS011;9713;48.140;11.530;2023-02-01T01:35:18;7.93;;;4.07;;
19161;SDS011;9713;48.140;11.530;2023-02-01T01:39:00;9.97;;;4.37;;
19161;SDS011;9713;48.140;11.530;2023-02-01T01:42:45;9.53;;;4.47;;
19161;SDS011;9713;48.140;11.530;2023-02-01T01:46:28;8.83;;;4.40;;
19161;SDS011;9713;48.140;11.530;2023-02-01T01:50:13;13.20;;;5.40;;
19161;SDS011;9713;48.140;11.530;2023-02-01T01:54:00;8.50;;;4.70;;
19161;SDS011;9713;48.140;11.530;2023-02-01T01:57:46;9.90;;;4.90;;
19161;SDS011;9713;48.140;11.530;2023-02-01T02:01:34;12.57;;;5.43;;
19161;SDS011;9713;48.140;11.530;2023-02-01T02:05:17;8.67;;;5.07;;
19161;SDS011;9713;48.140;11.530;2023-02-01T02:09:00;10.17;;;4.80;;
19161;SDS011;9713;48.140;11.530;2023-02-01T02:12:48;11.43;;;5.83;;
19161;SDS011;9713;48.140;11.530;2023-02-01T02:16:35;8.27;;;4.87;;
19161;SDS011;9713;48.140;11.530;2023-02-01T02:37:09;9.20;;;4.73;;
19161;SDS011;9713;48.140;11.530;2023-02-01T02:41:01;11.40;;;5.73;;
19161;SDS011;9713;48.140;11.530;2023-02-01T02:44:48;10.07;;;5.27;;
19161;SDS011;9713;48.140;11.530;2023-02-01T02:48:52;9.07;;;5.00;;
19161;SDS011;9713;48.140;11.530;2023-02-01T02:52:37;8.20;;;4.80;;
19161;SDS011;9713;48.140;11.530;2023-02-01T02:56:39;7.93;;;4.70;;
19161;SDS011;9713;48.140;11.530;2023-02-01T03:00:40;8.80;;;5.17;;
19161;SDS011;9713;48.140;11.530;2023-02-01T03:04:43;9.87;;;5.23;;
19161;SDS011;9713;48.140;11.530;2023-02-01T03:08:26;9.37;;;4.73;;
19161;SDS011;9713;48.140;11.530;2023-02-01T03:12:11;9.70;;;5.00;;
19161;SDS011;9713;48.140;11.530;2023-02-01T03:16:13;7.93;;;4.17;;
19161;SDS011;9713;48.140;11.530;2023-02-01T03:19:59;9.57;;;4.27;;
19161;SDS011;9713;48.140;11.530;2023-02-01T03:23:43;8.23;;;4.63;;
19161;SDS011;9713;48.140;11.530;2023-02-01T03:27:27;8.77;;;4.40;;
19161;SDS011;9713;48.140;11.530;2023-02-01T03:31:13;7.90;;;4.53;;
19161;SDS011;9713;48.140;11.530;2023-02-01T03:34:56;9.20;;;4.60;;
19161;SDS011;9713;48.140;11.530;2023-02-01T03:38:41;7.90;;;4.63;;
19161;SDS011;9713;48.140;11.530;2023-02-01T03:42:30;8.47;;;4.20;;
19161;SDS011;9713;48.140;11.530;2023-02-01T03:46:17;7.40;;;4.40;;
19161;SDS011;9713;48.140;11.530;2023-02-01T03:50:04;8.77;;;4.40;;
19161;SDS011;9713;48.140;11.530;2023-02-01T03:53:50;8.33;;;4.50;;
19161;SDS011;9713;48.140;11.530;2023-02-01T03:57:35;9.50;;;4.47;;
19161;SDS011;9713;48.140;11.530;2023-02-01T04:01:20;8.10;;;4.57;;
19161;SDS011;9713;48.140;11.530;2023-02-01T04:05:03;8.37;;;4.10;;
19161;SDS011;9713;48.140;11.530;2023-02-01T04:08:47;7.10;;;3.60;;
19161;SDS011;9713;48.140;11.530;2023-02-01T04:12:31;7.13;;;4.07;;
19161;SDS011;9713;48.140;11.530;2023-02-01T04:16:14;9.23;;;4.13;;
19161;SDS011;9713;48.140;11.530;2023-02-01T04:19:56;7.77;;;4.50;;
19161;SDS011;9713;48.140;11.530;2023-02-01T04:23:39;9.07;;;4.47;;
19161;SDS011;9713;48.140;11.530;2023-02-01T04:27:22;9.47;;;4.33;;
19161;SDS011;9713;48.140;11.530;2023-02-01T04:31:05;8.87;;;4.43;;
19161;SDS011;9713;48.140;11.530;2023-02-01T04:34:48;8.13;;;4.43;;
19161;SDS011;9713;48.140;11.530;2023-02-01T04:38:30;8.80;;;4.60;;
19161;SDS011;9713;48.140;11.530;2023-02-01T04:42:16;8.40;;;4.10;;
19161;SDS011;9713;48.140;11.530;2023-02-01T04:45:58;9.17;;;5.00;;
19161;SDS011;9713;48.140;11.530;2023-02-01T04:49:44;10.27;;;4.67;;
19161;SDS011;9713;48.140;11.530;2023-02-01T04:53:27;8.50;;;4.37;;
19161;SDS011;9713;48.140;11.530;2023-02-01T04:57:10;10.40;;;4.47;;
19161;SDS011;9713;48.140;11.530;2023-02-01T05:00:54;8.37;;;4.70;;
19161;SDS011;9713;48.140;11.530;2023-02-01T05:04:37;8.03;;;4.50;;
19161;SDS011;9713;48.140;11.530;2023-02-01T05:08:21;8.87;;;5.10;;
19161;SDS011;9713;48.140;11.530;2023-02-01T05:12:08;7.70;;;4.50;;
19161;SDS011;9713;48.140;11.530;2023-02-01T05:16:09;7.97;;;4.73;;
19161;SDS011;9713;48.140;11.530;2023-02-01T05:19:52;9.13;;;4.47;;
19161;SDS011;9713;48.140;11.530;2023-02-01T05:23:36;7.57;;;4.87;;
19161;SDS011;9713;48.140;11.530;2023-02-01T05:27:39;8.73;;;4.87;;
19161;SDS011;9713;48.140;11.530;2023-02-01T05:31:22;8.83;;;5.17;;
19161;SDS011;9713;48.140;11.530;2023-02-01T05:35:05;10.13;;;5.30;;
19161;SDS011;9713;48.140;11.530;2023-02-01T05:38:50;10.60;;;5.13;;
19161;SDS011;9713;48.140;11.530;2023-02-01T05:42:36;8.70;;;5.30;;
19161;SDS011;9713;48.140;11.530;2023-02-01T05:46:18;8.50;;;5.00;;
19161;SDS011;9713;48.140;11.530;2023-02-01T05:50:01;8.80;;;5.00;;
19161;SDS011;9713;48.140;11.530;2023-02-01T05:53:45;9.57;;;4.97;;
19161;SDS011;9713;48.140;11.530;2023-02-01T05:57:29;8.67;;;5.10;;
19161;SDS011;9713;48.140;11.530;2023-02-01T06:01:12;8.83;;;5.13;;
19161;SDS011;9713;48.140;11.530;2023-02-01T06:04:54;8.77;;;5.40;;
19161;SDS011;9713;48.140;11.530;2023-02-01T06:08:40;9.03;;;4.97;;
19161;SDS011;9713;48.140;11.530;2023-02-01T06:12:23;9.30;;;4.93;;
19161;SDS011;9713;48.140;11.530;2023-02-01T06:16:07;8.27;;;4.90;;
19161;SDS011;9713;48.140;11.530;2023-02-01T06:19:50;10.40;;;4.83;;
19161;SDS011;9713;48.140;11.530;2023-02-01T06:23:33;9.80;;;4.70;;
19161;SDS011;9713;48.140;11.530;2023-02-01T06:27:17;7.17;;;4.40;;
19161;SDS011;9713;48.140;11.530;2023-02-01T06:31:02;8.73;;;5.20;;
19161;SDS011;9713;48.140;11.530;2023-02-01T06:34:49;9.40;;;4.90;;
19161;SDS011;9713;48.140;11.530;2023-02-01T06:38:33;8.23;;;4.70;;
19161;SDS011;9713;48.140;11.530;2023-02-01T06:42:17;9.17;;;4.83;;
19161;SDS011;9713;48.140;11.530;2023-02-01T06:46:00;8.43;;;4.60;;
19161;SDS011;9713;48.140;11.530;2023-02-01T06:49:43;10.80;;;4.90;;
19161;SDS011;9713;48.140;11.530;2023-02-01T06:53:27;8.30;;;4.73;;
19161;SDS011;9713;48.140;11.530;2023-02-01T06:57:10;9.13;;;4.63;;
19161;SDS011;9713;48.140;11.530;2023-02-01T07:00:54;9.93;;;4.80;;
19161;SDS011;9713;48.140;11.530;2023-02-01T07:04:36;8.70;;;4.87;;
19161;SDS011;9713;48.140;11.530;2023-02-01T07:08:19;9.47;;;4.70;;
19161;SDS011;9713;48.140;11.530;2023-02-01T07:12:03;9.53;;;4.37;;
19161;SDS011;9713;48.140;11.530;2023-02-01T07:15:46;10.27;;;4.27;;
19161;SDS011;9713;48.140;11.530;2023-02-01T07:19:29;8.00;;;4.20;;
19161;SDS011;9713;48.140;11.530;2023-02-01T07:23:12;6.23;;;3.73;;
19161;SDS011;9713;48.140;11.530;2023-02-01T07:26:55;8.10;;;3.97;;
19161;SDS011;9713;48.140;11.530;2023-02-01T07:30:39;6.40;;;3.53;;
19161;SDS011;9713;48.140;11.530;2023-02-01T07:34:22;5.77;;;3.07;;
19161;SDS011;9713;48.140;11.530;2023-02-01T07:38:06;4.67;;;3.10;;
19161;SDS011;9713;48.140;11.530;2023-02-01T07:41:51;6.27;;;3.57;;
19161;SDS011;9713;48.140;11.530;2023-02-01T07:45:34;9.87;;;3.40;;
19161;SDS011;9713;48.140;11.530;2023-02-01T07:49:18;5.83;;;3.37;;
19161;SDS011;9713;48.140;11.530;2023-02-01T07:53:01;6.67;;;3.70;;
19161;SDS011;9713;48.140;11.530;2023-02-01T07:56:44;4.97;;;3.20;;
19161;SDS011;9713;48.140;11.530;2023-02-01T08:00:27;5.70;;;3.10;;
19161;SDS011;9713;48.140;11.530;2023-02-01T08:04:28;5.83;;;2.87;;
19161;SDS011;9713;48.140;11.530;2023-02-01T08:08:12;4.47;;;2.80;;
19161;SDS011;9713;48.140;11.530;2023-02-01T08:11:54;5.00;;;3.00;;
19161;SDS011;9713;48.140;11.530;2023-02-01T08:15:37;5.00;;;2.87;;
19161;SDS011;9713;48.140;11.530;2023-02-01T08:19:20;5.07;;;2.90;;
19161;SDS011;9713;48.140;11.530;2023-02-01T08:23:06;4.60;;;2.80;;
19161;SDS011;9713;48.140;11.530;2023-02-01T08:26:50;5.20;;;2.57;;
19161;SDS011;9713;48.140;11.530;2023-02-01T08:30:33;4.07;;;2.70;;
19161;SDS011;9713;48.140;11.530;2023-02-01T08:34:15;4.17;;;2.67;;
19161;SDS011;9713;48.140;11.530;2023-02-01T08:37:58;4.93;;;2.67;;
19161;SDS011;9713;48.140;11.530;2023-02-01T08:41:42;4.77;;;2.50;;
19161;SDS011;9713;48.140;11.530;2023-02-01T08:45:45;4.80;;;2.73;;
19161;SDS011;9713;48.140;11.530;2023-02-01T08:49:28;5.70;;;2.67;;
19161;SDS011;9713;48.140;11.530;2023-02-01T08:53:11;4.53;;;2.60;;
19161;SDS011;9713;48.140;11.530;2023-02-01T08:56:56;6.80;;;2.80;;
19161;SDS011;9713;48.140;11.530;2023-02-01T09:00:39;4.67;;;3.00;;
19161;SDS011;9713;48.140;11.530;2023-02-01T09:04:22;4.10;;;2.83;;
19161;SDS011;9713;48.140;11.530;2023-02-01T09:08:05;6.87;;;2.97;;
19161;SDS011;9713;48.140;11.530;2023-02-01T09:11:48;5.90;;;3.00;;
19161;SDS011;9713;48.140;11.530;2023-02-01T09:15:32;4.33;;;2.70;;
19161;SDS011;9713;48.140;11.530;2023-02-01T09:19:15;5.60;;;3.03;;
19161;SDS011;9713;48.140;11.530;2023-02-01T09:23:07;5.27;;;2.67;;
19161;SDS011;9713;48.140;11.530;2023-02-01T09:26:50;4.43;;;2.73;;
19161;SDS011;9713;48.140;11.530;2023-02-01T09:30:35;5.77;;;3.00;;
19161;SDS011;9713;48.140;11.530;2023-02-01T09:34:18;5.63;;;2.57;;
19161;SDS011;9713;48.140;11.530;2023-02-01T09:38:01;5.93;;;2.83;;
19161;SDS011;9713;48.140;11.530;2023-02-01T09:41:49;5.00;;;2.60;;
19161;SDS011;9713;48.140;11.530;2023-02-01T09:45:39;3.93;;;2.53;;
19161;SDS011;9713;48.140;11.530;2023-02-01T09:49:29;4.70;;;2.83;;
19161;SDS011;9713;48.140;11.530;2023-02-01T09:53:15;5.33;;;2.80;;
19161;SDS011;9713;48.140;11.530;2023-02-01T09:57:06;5.90;;;2.90;;
19161;SDS011;9713;48.140;11.530;2023-02-01T10:00:53;4.43;;;2.80;;
19161;SDS011;9713;48.140;11.530;2023-02-01T10:04:36;5.07;;;3.00;;
19161;SDS011;9713;48.140;11.530;2023-02-01T10:08:19;5.13;;;3.03;;
19161;SDS011;9713;48.140;11.530;2023-02-01T10:12:16;5.23;;;3.00;;
19161;SDS011;9713;48.140;11.530;2023-02-01T10:16:19;5.93;;;3.00;;
19161;SDS011;9713;48.140;11.530;2023-02-01T10:20:08;8.17;;;2.83;;
19161;SDS011;9713;48.140;11.530;2023-02-01T10:23:58;7.10;;;3.33;;
19161;SDS011;9713;48.140;11.530;2023-02-01T10:27:59;4.60;;;2.60;;
19161;SDS011;9713;48.140;11.530;2023-02-01T10:31:44;6.90;;;3.13;;
19161;SDS011;9713;48.140;11.530;2023-02-01T10:35:28;5.20;;;3.00;;
19161;SDS011;9713;48.140;11.530;2023-02-01T10:39:13;5.40;;;2.70;;
19161;SDS011;9713;48.140;11.530;2023-02-01T10:42:57;4.97;;;2.80;;
19161;SDS011;9713;48.140;11.530;2023-02-01T10:46:41;5.23;;;2.80;;
19161;SDS011;9713;48.140;11.530;2023-02-01T10:50:35;5.70;;;3.90;;
19161;SDS011;9713;48.140;11.530;2023-02-01T10:54:20;5.50;;;3.00;;
19161;SDS011;9713;48.140;11.530;2023-02-01T10:58:05;6.93;;;3.43;;
19161;SDS011;9713;48.140;11.530;2023-02-01T11:01:50;6.70;;;3.03;;
19161;SDS011;9713;48.140;11.530;2023-02-01T11:05:44;39.17;;;13.53;;
19161;SDS011;9713;48.140;11.530;2023-02-01T11:09:27;5.33;;;3.43;;
19161;SDS011;9713;48.140;11.530;2023-02-01T11:13:11;6.33;;;3.50;;
19161;SDS011;9713;48.140;11.530;2023-02-01T11:16:57;4.80;;;2.83;;
19161;SDS011;9713;48.140;11.530;2023-02-01T11:20:42;5.97;;;3.53;;
19161;SDS011;9713;48.140;11.530;2023-02-01T11:24:27;6.07;;;3.13;;
19161;SDS011;9713;48.140;11.530;2023-02-01T11:28:11;8.73;;;3.30;;
19161;SDS011;9713;48.140;11.530;2023-02-01T11:31:55;6.30;;;3.53;;
19161;SDS011;9713;48.140;11.530;2023-02-01T11:35:39;7.03;;;3.40;;
19161;SDS011;9713;48.140;11.530;2023-02-01T11:39:24;5.53;;;3.07;;
19161;SDS011;9713;48.140;11.530;2023-02-01T11:43:12;7.27;;;3.20;;
19161;SDS011;9713;48.140;11.530;2023-02-01T11:46:57;6.90;;;3.50;;
19161;SDS011;9713;48.140;11.530;2023-02-01T11:51:04;6.83;;;3.13;;
19161;SDS011;9713;48.140;11.530;2023-02-01T11:55:00;6.07;;;3.03;;
19161;SDS011;9713;48.140;11.530;2023-02-01T11:59:05;7.77;;;3.17;;
19161;SDS011;9713;48.140;11.530;2023-02-01T12:07:08;8.13;;;4.20;;
19161;SDS011;9713;48.140;11.530;2023-02-01T12:10:57;6.90;;;3.53;;
19161;SDS011;9713;48.140;11.530;2023-02-01T12:15:19;9.30;;;3.90;;
19161;SDS011;9713;48.140;11.530;2023-02-01T12:19:16;5.93;;;3.13;;
19161;SDS011;9713;48.140;11.530;2023-02-01T12:23:06;4.97;;;3.23;;
19161;SDS011;9713;48.140;11.530;2023-02-01T12:27:00;8.73;;;3.40;;
19161;SDS011;9713;48.140;11.530;2023-02-01T12:30:58;6.80;;;3.30;;
19161;SDS011;9713;48.140;11.530;2023-02-01T12:35:04;9.03;;;3.47;;
19161;SDS011;9713;48.140;11.530;2023-02-01T12:38:57;6.50;;;3.40;;
19161;SDS011;9713;48.140;11.530;2023-02-01T12:42:46;7.40;;;3.23;;
19161;SDS011;9713;48.140;11.530;2023-02-01T12:46:37;8.27;;;3.47;;
19161;SDS011;9713;48.140;11.530;2023-02-01T12:50:24;8.57;;;3.50;;
19161;SDS011;9713;48.140;11.530;2023-02-01T12:54:11;9.17;;;3.10;;
19161;SDS011;9713;48.140;11.530;2023-02-01T12:57:57;7.13;;;3.07;;
19161;SDS011;9713;48.140;11.530;2023-02-01T13:01:48;7.17;;;3.07;;
19161;SDS011;9713;48.140;11.530;2023-02-01T13:05:34;5.97;;;2.80;;
19161;SDS011;9713;48.140;11.530;2023-02-01T13:09:23;5.97;;;2.80;;
19161;SDS011;9713;48.140;11.530;2023-02-01T13:13:10;11.37;;;2.90;;
19161;SDS011;9713;48.140;11.530;2023-02-01T13:16:59;4.70;;;2.77;;
19161;SDS011;9713;48.140;11.530;2023-02-01T13:20:46;7.50;;;3.60;;
19161;SDS011;9713;48.140;11.530;2023-02-01T13:24:33;5.10;;;3.00;;
19161;SDS011;9713;48.140;11.530;2023-02-01T13:28:20;5.73;;;3.03;;
19161;SDS011;9713;48.140;11.530;2023-02-01T13:36:47;7.17;;;3.37;;
19161;SDS011;9713;48.140;11.530;2023-02-01T13:40:39;6.47;;;3.10;;
19161;SDS011;9713;48.140;11.530;2023-02-01T13:44:25;4.87;;;3.07;;
19161;SDS011;9713;48.140;11.530;2023-02-01T13:48:18;6.30;;;3.33;;
19161;SDS011;9713;48.140;11.530;2023-02-01T13:52:03;6.40;;;3.30;;
19161;SDS011;9713;48.140;11.530;2023-02-01T13:55:46;6.57;;;3.10;;
19161;SDS011;9713;48.140;11.530;2023-02-01T13:59:36;6.53;;;3.10;;
19161;SDS011;9713;48.140;11.530;2023-02-01T14:03:43;5.63;;;3.47;;
19161;SDS011;9713;48.140;11.530;2023-02-01T14:07:27;5.23;;;3.00;;
19161;SDS011;9713;48.140;11.530;2023-02-01T14:15:17;6.83;;;2.67;;
19161;SDS011;9713;48.140;11.530;2023-02-01T14:19:09;9.53;;;3.40;;
19161;SDS011;9713;48.140;11.530;2023-02-01T14:23:01;6.57;;;3.10;;
19161;SDS011;9713;48.140;11.530;2023-02-01T14:26:45;5.37;;;2.80;;
19161;SDS011;9713;48.140;11.530;2023-02-01T14:30:29;4.97;;;2.70;;
19161;SDS011;9713;48.140;11.530;2023-02-01T14:34:14;4.90;;;2.60;;
19161;SDS011;9713;48.140;11.530;2023-02-01T14:37:59;5.97;;;2.80;;
19161;SDS011;9713;48.140;11.530;2023-02-01T14:41:44;4.20;;;2.40;;
19161;SDS011;9713;48.140;11.530;2023-02-01T14:45:47;5.23;;;2.53;;
19161;SDS011;9713;48.140;11.530;2023-02-01T14:49:34;11.63;;;2.90;;
19161;SDS011;9713;48.140;11.530;2023-02-01T14:53:20;5.43;;;2.40;;
19161;SDS011;9713;48.140;11.530;2023-02-01T14:57:08;7.33;;;2.83;;
19161;SDS011;9713;48.140;11.530;2023-02-01T15:00:56;6.60;;;2.60;;
19161;SDS011;9713;48.140;11.530;2023-02-01T15:04:41;5.97;;;2.70;;
19161;SDS011;9713;48.140;11.530;2023-02-01T15:08:25;6.03;;;2.80;;
19161;SDS011;9713;48.140;11.530;2023-02-01T15:12:15;7.07;;;2.53;;
19161;SDS011;9713;48.140;11.530;2023-02-01T15:16:05;6.33;;;2.50;;
19161;SDS011;9713;48.140;11.530;2023-02-01T15:19:54;7.70;;;2.87;;
19161;SDS011;9713;48.140;11.530;2023-02-01T15:23:37;8.93;;;2.60;;
19161;SDS011;9713;48.140;11.530;2023-02-01T15:27:20;4.30;;;2.10;;
19161;SDS011;9713;48.140;11.530;2023-02-01T15:31:04;6.90;;;2.30;;
19161;SDS011;9713;48.140;11.530;2023-02-01T15:34:48;7.03;;;2.60;;
19161;SDS011;9713;48.140;11.530;2023-02-01T15:38:37;4.97;;;2.40;;
19161;SDS011;9713;48.140;11.530;2023-02-01T15:42:21;7.80;;;2.50;;
19161;SDS011;9713;48.140;11.530;2023-02-01T15:46:06;8.73;;;3.03;;
19161;SDS011;9713;48.140;11.530;2023-02-01T15:49:51;7.03;;;3.07;;
19161;SDS011;9713;48.140;11.530;2023-02-01T15:53:36;6.73;;;3.53;;
19161;SDS011;9713;48.140;11.530;2023-02-01T15:57:20;7.20;;;2.90;;
19161;SDS011;9713;48.140;11.530;2023-02-01T16:01:04;4.90;;;2.50;;
19161;SDS011;9713;48.140;11.530;2023-02-01T16:04:48;5.53;;;2.93;;
19161;SDS011;9713;48.140;11.530;2023-02-01T16:08:32;5.60;;;2.77;;
19161;SDS011;9713;48.140;11.530;2023-02-01T16:12:22;5.43;;;2.50;;
19161;SDS011;9713;48.140;11.530;2023-02-01T16:16:10;5.67;;;2.23;;
19161;SDS011;9713;48.140;11.530;2023-02-01T16:19:55;7.73;;;2.40;;
19161;SDS011;9713;48.140;11.530;2023-02-01T16:23:38;6.47;;;2.43;;
19161;SDS011;9713;48.140;11.530;2023-02-01T16:27:22;7.03;;;2.03;;
19161;SDS011;9713;48.140;11.530;2023-02-01T16:31:05;7.47;;;2.30;;
19161;SDS011;9713;48.140;11.530;2023-02-01T16:34:49;8.53;;;2.10;;
19161;SDS011;9713;48.140;11.530;2023-02-01T16:38:34;5.10;;;2.37;;
19161;SDS011;9713;48.140;11.530;2023-02-01T16:42:17;6.70;;;2.53;;
19161;SDS011;9713;48.140;11.530;2023-02-01T16:46:01;8.13;;;2.30;;
19161;SDS011;9713;48.140;11.530;2023-02-01T16:49:44;6.47;;;2.67;;
19161;SDS011;9713;48.140;11.530;2023-02-01T16:53:28;4.17;;;2.33;;
19161;SDS011;9713;48.140;11.530;2023-02-01T16:57:17;4.93;;;2.33;;
19161;SDS011;9713;48.140;11.530;2023-02-01T17:01:02;5.73;;;2.53;;
19161;SDS011;9713;48.140;11.530;2023-02-01T17:04:45;4.90;;;2.30;;
19161;SDS011;9713;48.140;11.530;2023-02-01T17:08:29;7.27;;;2.50;;
19161;SDS011;9713;48.140;11.530;2023-02-01T17:12:18;8.30;;;2.30;;
19161;SDS011;9713;48.140;11.530;2023-02-01T17:16:05;7.70;;;2.37;;
19161;SDS011;9713;48.140;11.530;2023-02-01T17:19:55;9.40;;;2.57;;
19161;SDS011;9713;48.140;11.530;2023-02-01T17:23:38;9.60;;;2.50;;
19161;SDS011;9713;48.140;11.530;2023-02-01T17:27:21;8.00;;;2.60;;
19161;SDS011;9713;48.140;11.530;2023-02-01T17:31:05;5.70;;;2.40;;
19161;SDS011;9713;48.140;11.530;2023-02-01T17:34:48;8.80;;;2.80;;
19161;SDS011;9713;48.140;11.530;2023-02-01T17:38:31;9.67;;;2.40;;
19161;SDS011;9713;48.140;11.530;2023-02-01T17:42:14;8.97;;;2.40;;
19161;SDS011;9713;48.140;11.530;2023-02-01T17:45:57;6.43;;;2.27;;
19161;SDS011;9713;48.140;11.530;2023-02-01T17:49:43;11.33;;;2.47;;
19161;SDS011;9713;48.140;11.530;2023-02-01T17:53:26;8.80;;;2.70;;
19161;SDS011;9713;48.140;11.530;2023-02-01T17:57:10;9.20;;;2.43;;
19161;SDS011;9713;48.140;11.530;2023-02-01T18:00:54;7.50;;;2.30;;
19161;SDS011;9713;48.140;11.530;2023-02-01T18:04:36;6.17;;;2.03;;
19161;SDS011;9713;48.140;11.530;2023-02-01T18:08:21;6.47;;;2.23;;
19161;SDS011;9713;48.140;11.530;2023-02-01T18:12:06;9.20;;;2.37;;
19161;SDS011;9713;48.140;11.530;2023-02-01T18:15:56;13.50;;;2.70;;
19161;SDS011;9713;48.140;11.530;2023-02-01T18:19:40;7.87;;;2.27;;
19161;SDS011;9713;48.140;11.530;2023-02-01T18:23:24;5.30;;;2.00;;
19161;SDS011;9713;48.140;11.530;2023-02-01T18:27:07;6.20;;;2.10;;
19161;SDS011;9713;48.140;11.530;2023-02-01T18:30:50;7.63;;;2.10;;
19161;SDS011;9713;48.140;11.530;2023-02-01T18:34:33;7.70;;;2.20;;
19161;SDS011;9713;48.140;11.530;2023-02-01T18:38:15;8.87;;;2.17;;
19161;SDS011;9713;48.140;11.530;2023-02-01T18:41:59;8.43;;;1.93;;
19161;SDS011;9713;48.140;11.530;2023-02-01T18:45:43;12.60;;;2.50;;
19161;SDS011;9713;48.140;11.530;2023-02-01T18:49:26;8.43;;;2.30;;
19161;SDS011;9713;48.140;11.530;2023-02-01T18:53:10;5.77;;;1.93;;
19161;SDS011;9713;48.140;11.530;2023-02-01T18:56:54;7.53;;;2.03;;
19161;SDS011;9713;48.140;11.530;2023-02-01T19:00:38;6.73;;;2.67;;
19161;SDS011;9713;48.140;11.530;2023-02-01T19:04:21;5.13;;;2.00;;
19161;SDS011;9713;48.140;11.530;2023-02-01T19:08:07;7.50;;;2.20;;
19161;SDS011;9713;48.140;11.530;2023-02-01T19:11:51;7.90;;;2.50;;
19161;SDS011;9713;48.140;11.530;2023-02-01T19:15:34;6.70;;;2.37;;
19161;SDS011;9713;48.140;11.530;2023-02-01T19:19:21;7.07;;;2.27;;
19161;SDS011;9713;48.140;11.530;2023-02-01T19:23:04;8.27;;;2.10;;
19161;SDS011;9713;48.140;11.530;2023-02-01T19:26:47;7.40;;;2.23;;
19161;SDS011;9713;48.140;11.530;2023-02-01T19:30:31;11.43;;;2.53;;
19161;SDS011;9713;48.140;11.530;2023-02-01T19:34:14;8.13;;;2.57;;
19161;SDS011;9713;48.140;11.530;2023-02-01T19:37:58;10.63;;;2.30;;
19161;SDS011;9713;48.140;11.530;2023-02-01T19:41:41;9.33;;;2.10;;
19161;SDS011;9713;48.140;11.530;2023-02-01T19:45:24;7.40;;;2.10;;
19161;SDS011;9713;48.140;11.530;2023-02-01T19:49:07;9.60;;;2.03;;
19161;SDS011;9713;48.140;11.530;2023-02-01T19:52:52;5.87;;;2.13;;
19161;SDS011;9713;48.140;11.530;2023-02-01T19:56:36;11.63;;;2.67;;
19161;SDS011;9713;48.140;11.530;2023-02-01T20:00:19;8.73;;;2.50;;
19161;SDS011;9713;48.140;11.530;2023-02-01T20:04:03;7.83;;;2.57;;
19161;SDS011;9713;48.140;11.530;2023-02-01T20:07:47;10.70;;;2.40;;
19161;SDS011;9713;48.140;11.530;2023-02-01T20:11:30;8.37;;;2.43;;
19161;SDS011;9713;48.140;11.530;2023-02-01T20:15:14;9.57;;;2.30;;
19161;SDS011;9713;48.140;11.530;2023-02-01T20:18:57;11.20;;;2.70;;
19161;SDS011;9713;48.140;11.530;2023-02-01T20:22:40;10.47;;;2.10;;
19161;SDS011;9713;48.140;11.530;2023-02-01T20:26:22;8.43;;;2.57;;
19161;SDS011;9713;48.140;11.530;2023-02-01T20:30:06;9.70;;;2.47;;
19161;SDS011;9713;48.140;11.530;2023-02-01T20:33:51;9.37;;;2.23;;
19161;SDS011;9713;48.140;11.530;2023-02-01T20:37:34;6.67;;;2.10;;
19161;SDS011;9713;48.140;11.530;2023-02-01T20:41:17;7.30;;;2.13;;
19161;SDS011;9713;48.140;11.530;2023-02-01T20:45:00;10.30;;;2.03;;
19161;SDS011;9713;48.140;11.530;2023-02-01T20:48:44;8.10;;;2.10;;
19161;SDS011;9713;48.140;11.530;2023-02-01T20:52:29;5.97;;;2.00;;
19161;SDS011;9713;48.140;11.530;2023-02-01T20:56:12;10.77;;;2.20;;
19161;SDS011;9713;48.140;11.530;2023-02-01T20:59:56;9.77;;;2.30;;
19161;SDS011;9713;48.140;11.530;2023-02-01T21:03:39;12.70;;;2.27;;
19161;SDS011;9713;48.140;11.530;2023-02-01T21:07:23;9.33;;;1.97;;
19161;SDS011;9713;48.140;11.530;2023-02-01T21:11:08;10.00;;;2.30;;
19161;SDS011;9713;48.140;11.530;2023-02-01T21:14:51;9.37;;;2.07;;
19161;SDS011;9713;48.140;11.530;2023-02-01T21:18:35;10.20;;;2.10;;
19161;SDS011;9713;48.140;11.530;2023-02-01T21:22:18;9.60;;;1.97;;
19161;SDS011;9713;48.140;11.530;2023-02-01T21:26:01;8.63;;;2.17;;
19161;SDS011;9713;48.140;11.530;2023-02-01T21:29:46;8.07;;;1.80;;
19161;SDS011;9713;48.140;11.530;2023-02-01T21:33:29;5.30;;;1.60;;
19161;SDS011;9713;48.140;11.530;2023-02-01T21:37:12;10.80;;;2.03;;
19161;SDS011;9713;48.140;11.530;2023-02-01T21:40:55;8.03;;;2.20;;
19161;SDS011;9713;48.140;11.530;2023-02-01T21:44:58;8.20;;;2.00;;
19161;SDS011;9713;48.140;11.530;2023-02-01T21:48:42;9.73;;;2.00;;
19161;SDS011;9713;48.140;11.530;2023-02-01T21:52:45;6.13;;;2.03;;
19161;SDS011;9713;48.140;11.530;2023-02-01T21:56:28;5.17;;;1.80;;
19161;SDS011;9713;48.140;11.530;2023-02-01T22:00:13;11.20;;;2.40;;
19161;SDS011;9713;48.140;11.530;2023-02-01T22:03:57;5.77;;;1.70;;
19161;SDS011;9713;48.140;11.530;2023-02-01T22:07:41;6.63;;;2.17;;
19161;SDS011;9713;48.140;11.530;2023-02-01T22:11:24;6.30;;;1.73;;
19161;SDS011;9713;48.140;11.530;2023-02-01T22:15:07;8.77;;;1.93;;
19161;SDS011;9713;48.140;11.530;2023-02-01T22:18:52;11.53;;;2.40;;
19161;SDS011;9713;48.140;11.530;2023-02-01T22:22:35;9.53;;;2.00;;
19161;SDS011;9713;48.140;11.530;2023-02-01T22:26:18;9.43;;;2.10;;
19161;SDS011;9713;48.140;11.530;2023-02-01T22:30:01;9.83;;;2.00;;
19161;SDS011;9713;48.140;11.530;2023-02-01T22:33:44;5.70;;;1.67;;
19161;SDS011;9713;48.140;11.530;2023-02-01T22:37:28;9.47;;;1.60;;
19161;SDS011;9713;48.140;11.530;2023-02-01T22:41:11;4.97;;;1.60;;
19161;SDS011;9713;48.140;11.530;2023-02-01T22:44:54;10.73;;;2.20;;
19161;SDS011;9713;48.140;11.530;2023-02-01T22:48:39;7.83;;;2.30;;
19161;SDS011;9713;48.140;11.530;2023-02-01T22:52:22;8.60;;;2.13;;
19161;SDS011;9713;48.140;11.530;2023-02-01T22:56:06;8.70;;;1.83;;
19161;SDS011;9713;48.140;11.530;2023-02-01T22:59:49;8.00;;;1.63;;
19161;SDS011;9713;48.140;11.530;2023-02-01T23:03:32;5.83;;;1.70;;
19161;SDS011;9713;48.140;11.530;2023-02-01T23:07:15;5.03;;;1.90;;